sensor_id;sensor_type;location;lat;lon;timestamp;temperature;humidity
43089;DHT22;28709;52.030;5.652;2023-07-08T00:00:30;20.70;83.60
43089;DHT22;28709;52.030;5.652;2023-07-08T00:02:55;20.60;83.60
43089;DHT22;28709;52.030;5.652;2023-07-08T00:05:22;20.60;83.90
43089;DHT22;28709;52.030;5.652;2023-07-08T00:07:49;20.60;84.50
43089;DHT22;28709;52.030;5.652;2023-07-08T00:10:25;20.60;84.10
43089;DHT22;28709;52.030;5.652;2023-07-08T00:12:53;20.60;84.10
43089;DHT22;28709;52.030;5.652;2023-07-08T00:15:27;20.60;84.30
43089;DHT22;28709;52.030;5.652;2023-07-08T00:17:52;20.60;84.30
43089;DHT22;28709;52.030;5.652;2023-07-08T00:20:37;20.60;84.40
43089;DHT22;28709;52.030;5.652;2023-07-08T00:23:04;20.50;84.50
43089;DHT22;28709;52.030;5.652;2023-07-08T00:25:31;20.50;84.60
43089;DHT22;28709;52.030;5.652;2023-07-08T00:27:57;20.50;84.70
43089;DHT22;28709;52.030;5.652;2023-07-08T00:30:26;20.50;84.80
43089;DHT22;28709;52.030;5.652;2023-07-08T00:32:52;20.40;84.90
43089;DHT22;28709;52.030;5.652;2023-07-08T00:35:28;20.40;84.90
43089;DHT22;28709;52.030;5.652;2023-07-08T00:37:55;20.40;85.00
43089;DHT22;28709;52.030;5.652;2023-07-08T00:40:38;20.40;85.10
43089;DHT22;28709;52.030;5.652;2023-07-08T00:43:14;20.40;85.10
43089;DHT22;28709;52.030;5.652;2023-07-08T00:45:51;20.30;85.10
43089;DHT22;28709;52.030;5.652;2023-07-08T00:48:23;20.30;85.20
43089;DHT22;28709;52.030;5.652;2023-07-08T00:50:50;20.30;85.20
43089;DHT22;28709;52.030;5.652;2023-07-08T00:53:22;20.30;85.30
43089;DHT22;28709;52.030;5.652;2023-07-08T00:55:50;20.30;85.40
43089;DHT22;28709;52.030;5.652;2023-07-08T00:58:17;20.20;85.50
43089;DHT22;28709;52.030;5.652;2023-07-08T01:00:45;20.20;85.60
43089;DHT22;28709;52.030;5.652;2023-07-08T01:03:10;20.20;85.80
43089;DHT22;28709;52.030;5.652;2023-07-08T01:05:37;20.10;85.90
43089;DHT22;28709;52.030;5.652;2023-07-08T01:08:05;20.00;86.10
43089;DHT22;28709;52.030;5.652;2023-07-08T01:10:39;20.00;86.40
43089;DHT22;28709;52.030;5.652;2023-07-08T01:13:05;20.00;86.60
43089;DHT22;28709;52.030;5.652;2023-07-08T01:15:38;20.00;86.60
43089;DHT22;28709;52.030;5.652;2023-07-08T01:18:08;19.90;86.80
43089;DHT22;28709;52.030;5.652;2023-07-08T01:20:34;19.90;87.20
43089;DHT22;28709;52.030;5.652;2023-07-08T01:23:00;19.80;87.10
43089;DHT22;28709;52.030;5.652;2023-07-08T01:25:26;19.80;87.30
43089;DHT22;28709;52.030;5.652;2023-07-08T01:27:57;19.80;87.40
43089;DHT22;28709;52.030;5.652;2023-07-08T01:30:23;19.70;87.50
43089;DHT22;28709;52.030;5.652;2023-07-08T01:32:52;19.70;87.70
43089;DHT22;28709;52.030;5.652;2023-07-08T01:35:21;19.60;87.80
43089;DHT22;28709;52.030;5.652;2023-07-08T01:37:51;19.60;87.90
43089;DHT22;28709;52.030;5.652;2023-07-08T01:42:57;19.60;88.20
43089;DHT22;28709;52.030;5.652;2023-07-08T01:45:26;19.50;88.30
43089;DHT22;28709;52.030;5.652;2023-07-08T01:48:06;19.50;88.60
43089;DHT22;28709;52.030;5.652;2023-07-08T01:50:34;19.50;88.70
43089;DHT22;28709;52.030;5.652;2023-07-08T01:53:04;19.40;88.80
43089;DHT22;28709;52.030;5.652;2023-07-08T01:55:32;19.40;88.90
43089;DHT22;28709;52.030;5.652;2023-07-08T01:57:57;19.30;89.70
43089;DHT22;28709;52.030;5.652;2023-07-08T02:00:23;19.40;89.40
43089;DHT22;28709;52.030;5.652;2023-07-08T02:02:50;19.30;89.40
43089;DHT22;28709;52.030;5.652;2023-07-08T02:05:16;19.30;89.60
43089;DHT22;28709;52.030;5.652;2023-07-08T02:07:41;19.30;89.70
43089;DHT22;28709;52.030;5.652;2023-07-08T02:10:07;19.30;89.90
43089;DHT22;28709;52.030;5.652;2023-07-08T02:12:33;19.30;89.90
43089;DHT22;28709;52.030;5.652;2023-07-08T02:15:03;19.30;89.90
43089;DHT22;28709;52.030;5.652;2023-07-08T02:17:29;19.30;90.00
43089;DHT22;28709;52.030;5.652;2023-07-08T02:19:55;19.30;90.00
43089;DHT22;28709;52.030;5.652;2023-07-08T02:22:21;19.30;90.10
43089;DHT22;28709;52.030;5.652;2023-07-08T02:24:47;19.30;90.10
43089;DHT22;28709;52.030;5.652;2023-07-08T02:27:13;19.30;90.20
43089;DHT22;28709;52.030;5.652;2023-07-08T02:29:39;19.30;90.30
43089;DHT22;28709;52.030;5.652;2023-07-08T02:32:05;19.30;90.30
43089;DHT22;28709;52.030;5.652;2023-07-08T02:34:31;19.30;90.40
43089;DHT22;28709;52.030;5.652;2023-07-08T02:36:57;19.20;90.40
43089;DHT22;28709;52.030;5.652;2023-07-08T02:39:23;19.20;90.50
43089;DHT22;28709;52.030;5.652;2023-07-08T02:41:49;19.20;90.50
43089;DHT22;28709;52.030;5.652;2023-07-08T02:44:14;19.20;90.60
43089;DHT22;28709;52.030;5.652;2023-07-08T02:46:40;19.20;90.60
43089;DHT22;28709;52.030;5.652;2023-07-08T02:49:06;19.20;90.70
43089;DHT22;28709;52.030;5.652;2023-07-08T02:51:32;19.10;90.80
43089;DHT22;28709;52.030;5.652;2023-07-08T02:53:58;19.10;90.80
43089;DHT22;28709;52.030;5.652;2023-07-08T02:56:23;19.20;90.80
43089;DHT22;28709;52.030;5.652;2023-07-08T02:58:51;19.10;90.90
43089;DHT22;28709;52.030;5.652;2023-07-08T03:01:17;19.10;90.90
43089;DHT22;28709;52.030;5.652;2023-07-08T03:03:44;19.10;90.90
43089;DHT22;28709;52.030;5.652;2023-07-08T03:06:10;19.10;91.10
43089;DHT22;28709;52.030;5.652;2023-07-08T03:08:36;19.10;91.20
43089;DHT22;28709;52.030;5.652;2023-07-08T03:11:06;19.10;91.20
43089;DHT22;28709;52.030;5.652;2023-07-08T03:13:33;19.10;91.50
43089;DHT22;28709;52.030;5.652;2023-07-08T03:16:00;19.00;91.40
43089;DHT22;28709;52.030;5.652;2023-07-08T03:18:26;19.00;91.40
43089;DHT22;28709;52.030;5.652;2023-07-08T03:20:54;19.00;91.50
43089;DHT22;28709;52.030;5.652;2023-07-08T03:23:24;19.00;91.60
43089;DHT22;28709;52.030;5.652;2023-07-08T03:25:51;18.90;91.60
43089;DHT22;28709;52.030;5.652;2023-07-08T03:28:17;18.90;91.70
43089;DHT22;28709;52.030;5.652;2023-07-08T03:30:43;18.90;91.80
43089;DHT22;28709;52.030;5.652;2023-07-08T03:33:10;18.90;91.80
43089;DHT22;28709;52.030;5.652;2023-07-08T03:35:36;18.90;91.90
43089;DHT22;28709;52.030;5.652;2023-07-08T03:38:02;18.90;91.90
43089;DHT22;28709;52.030;5.652;2023-07-08T03:40:28;18.90;91.90
43089;DHT22;28709;52.030;5.652;2023-07-08T03:42:54;18.80;92.00
43089;DHT22;28709;52.030;5.652;2023-07-08T03:45:20;18.80;92.00
43089;DHT22;28709;52.030;5.652;2023-07-08T03:47:45;18.80;92.00
43089;DHT22;28709;52.030;5.652;2023-07-08T03:50:22;18.80;92.10
43089;DHT22;28709;52.030;5.652;2023-07-08T03:52:49;18.80;92.40
43089;DHT22;28709;52.030;5.652;2023-07-08T03:55:16;18.80;92.20
43089;DHT22;28709;52.030;5.652;2023-07-08T03:57:41;18.80;92.20
43089;DHT22;28709;52.030;5.652;2023-07-08T04:00:08;18.80;92.20
43089;DHT22;28709;52.030;5.652;2023-07-08T04:02:41;18.80;92.40
43089;DHT22;28709;52.030;5.652;2023-07-08T04:05:13;18.80;92.40
43089;DHT22;28709;52.030;5.652;2023-07-08T04:07:39;18.80;92.40
43089;DHT22;28709;52.030;5.652;2023-07-08T04:10:05;18.80;92.50
43089;DHT22;28709;52.030;5.652;2023-07-08T04:12:31;18.80;92.50
43089;DHT22;28709;52.030;5.652;2023-07-08T04:14:56;18.80;92.50
43089;DHT22;28709;52.030;5.652;2023-07-08T04:17:22;18.80;92.60
43089;DHT22;28709;52.030;5.652;2023-07-08T04:19:49;18.80;92.60
43089;DHT22;28709;52.030;5.652;2023-07-08T04:22:14;18.80;92.70
43089;DHT22;28709;52.030;5.652;2023-07-08T04:24:40;18.80;92.80
43089;DHT22;28709;52.030;5.652;2023-07-08T04:27:07;18.80;92.80
43089;DHT22;28709;52.030;5.652;2023-07-08T04:29:35;18.80;92.90
43089;DHT22;28709;52.030;5.652;2023-07-08T04:32:01;18.80;92.90
43089;DHT22;28709;52.030;5.652;2023-07-08T04:34:27;18.80;92.90
43089;DHT22;28709;52.030;5.652;2023-07-08T04:36:54;18.80;92.90
43089;DHT22;28709;52.030;5.652;2023-07-08T04:39:19;18.80;92.90
43089;DHT22;28709;52.030;5.652;2023-07-08T04:41:45;18.90;93.00
43089;DHT22;28709;52.030;5.652;2023-07-08T04:44:11;18.90;93.00
43089;DHT22;28709;52.030;5.652;2023-07-08T04:49:06;18.90;93.10
43089;DHT22;28709;52.030;5.652;2023-07-08T04:51:32;18.90;93.10
43089;DHT22;28709;52.030;5.652;2023-07-08T04:53:58;18.90;93.10
43089;DHT22;28709;52.030;5.652;2023-07-08T04:56:39;18.90;93.20
43089;DHT22;28709;52.030;5.652;2023-07-08T04:59:07;18.90;93.20
43089;DHT22;28709;52.030;5.652;2023-07-08T05:01:33;18.90;93.30
43089;DHT22;28709;52.030;5.652;2023-07-08T05:03:59;19.00;93.30
43089;DHT22;28709;52.030;5.652;2023-07-08T05:06:25;19.00;93.30
43089;DHT22;28709;52.030;5.652;2023-07-08T05:08:51;19.10;93.30
43089;DHT22;28709;52.030;5.652;2023-07-08T05:11:17;19.10;93.30
43089;DHT22;28709;52.030;5.652;2023-07-08T05:13:42;19.10;93.40
43089;DHT22;28709;52.030;5.652;2023-07-08T05:16:08;19.10;93.40
43089;DHT22;28709;52.030;5.652;2023-07-08T05:18:33;19.20;93.40
43089;DHT22;28709;52.030;5.652;2023-07-08T05:20:59;19.20;93.30
43089;DHT22;28709;52.030;5.652;2023-07-08T05:23:27;19.30;93.40
43089;DHT22;28709;52.030;5.652;2023-07-08T05:25:53;19.40;93.40
43089;DHT22;28709;52.030;5.652;2023-07-08T05:28:20;19.50;93.30
43089;DHT22;28709;52.030;5.652;2023-07-08T05:30:47;19.60;93.30
43089;DHT22;28709;52.030;5.652;2023-07-08T05:33:13;19.60;93.20
43089;DHT22;28709;52.030;5.652;2023-07-08T05:35:38;19.80;93.20
43089;DHT22;28709;52.030;5.652;2023-07-08T05:38:07;19.90;93.20
43089;DHT22;28709;52.030;5.652;2023-07-08T05:40:32;19.90;93.20
43089;DHT22;28709;52.030;5.652;2023-07-08T05:42:58;20.00;93.10
43089;DHT22;28709;52.030;5.652;2023-07-08T05:45:24;20.20;93.00
43089;DHT22;28709;52.030;5.652;2023-07-08T05:47:50;20.30;93.00
43089;DHT22;28709;52.030;5.652;2023-07-08T05:50:15;20.50;92.90
43089;DHT22;28709;52.030;5.652;2023-07-08T05:52:41;20.60;92.80
43089;DHT22;28709;52.030;5.652;2023-07-08T05:55:07;20.60;92.80
43089;DHT22;28709;52.030;5.652;2023-07-08T05:57:33;20.70;92.80
43089;DHT22;28709;52.030;5.652;2023-07-08T05:59:59;20.80;92.80
43089;DHT22;28709;52.030;5.652;2023-07-08T06:02:24;20.90;92.80
43089;DHT22;28709;52.030;5.652;2023-07-08T06:04:51;21.10;92.70
43089;DHT22;28709;52.030;5.652;2023-07-08T06:07:17;21.20;92.60
43089;DHT22;28709;52.030;5.652;2023-07-08T06:09:43;21.30;92.50
43089;DHT22;28709;52.030;5.652;2023-07-08T06:12:09;21.40;92.40
43089;DHT22;28709;52.030;5.652;2023-07-08T06:14:35;21.50;92.40
43089;DHT22;28709;52.030;5.652;2023-07-08T06:17:01;21.70;92.30
43089;DHT22;28709;52.030;5.652;2023-07-08T06:19:26;21.80;92.10
43089;DHT22;28709;52.030;5.652;2023-07-08T06:21:52;22.00;92.10
43089;DHT22;28709;52.030;5.652;2023-07-08T06:24:20;22.10;91.90
43089;DHT22;28709;52.030;5.652;2023-07-08T06:26:46;22.30;91.80
43089;DHT22;28709;52.030;5.652;2023-07-08T06:29:12;22.50;91.60
43089;DHT22;28709;52.030;5.652;2023-07-08T06:31:37;22.70;91.40
43089;DHT22;28709;52.030;5.652;2023-07-08T06:34:03;22.80;91.20
43089;DHT22;28709;52.030;5.652;2023-07-08T06:36:30;23.00;91.30
43089;DHT22;28709;52.030;5.652;2023-07-08T06:38:55;23.10;91.00
43089;DHT22;28709;52.030;5.652;2023-07-08T06:41:21;23.20;90.90
43089;DHT22;28709;52.030;5.652;2023-07-08T06:43:47;23.40;90.90
43089;DHT22;28709;52.030;5.652;2023-07-08T06:46:13;23.50;90.60
43089;DHT22;28709;52.030;5.652;2023-07-08T06:48:39;23.70;90.10
43089;DHT22;28709;52.030;5.652;2023-07-08T06:51:04;23.80;90.00
43089;DHT22;28709;52.030;5.652;2023-07-08T06:53:30;23.90;90.00
43089;DHT22;28709;52.030;5.652;2023-07-08T06:55:56;24.10;89.40
43089;DHT22;28709;52.030;5.652;2023-07-08T06:58:21;24.20;88.40
43089;DHT22;28709;52.030;5.652;2023-07-08T07:00:47;24.40;88.10
43089;DHT22;28709;52.030;5.652;2023-07-08T07:03:13;24.60;86.70
43089;DHT22;28709;52.030;5.652;2023-07-08T07:05:39;24.80;86.90
43089;DHT22;28709;52.030;5.652;2023-07-08T07:08:05;24.90;86.70
43089;DHT22;28709;52.030;5.652;2023-07-08T07:10:32;25.10;86.50
43089;DHT22;28709;52.030;5.652;2023-07-08T07:12:58;25.40;85.70
43089;DHT22;28709;52.030;5.652;2023-07-08T07:15:24;25.50;85.60
43089;DHT22;28709;52.030;5.652;2023-07-08T07:17:50;25.60;84.00
43089;DHT22;28709;52.030;5.652;2023-07-08T07:20:16;25.70;83.70
43089;DHT22;28709;52.030;5.652;2023-07-08T07:22:42;25.90;82.20
43089;DHT22;28709;52.030;5.652;2023-07-08T07:25:08;26.00;82.20
43089;DHT22;28709;52.030;5.652;2023-07-08T07:27:34;26.20;81.60
43089;DHT22;28709;52.030;5.652;2023-07-08T07:29:59;26.30;80.70
43089;DHT22;28709;52.030;5.652;2023-07-08T07:32:25;26.40;80.00
43089;DHT22;28709;52.030;5.652;2023-07-08T07:34:51;26.50;80.90
43089;DHT22;28709;52.030;5.652;2023-07-08T07:37:20;26.60;80.90
43089;DHT22;28709;52.030;5.652;2023-07-08T07:39:46;26.70;79.60
43089;DHT22;28709;52.030;5.652;2023-07-08T07:42:13;26.90;79.40
43089;DHT22;28709;52.030;5.652;2023-07-08T07:44:39;27.10;79.70
43089;DHT22;28709;52.030;5.652;2023-07-08T07:47:06;27.20;80.20
43089;DHT22;28709;52.030;5.652;2023-07-08T07:49:32;27.40;79.90
43089;DHT22;28709;52.030;5.652;2023-07-08T07:51:58;27.50;79.60
43089;DHT22;28709;52.030;5.652;2023-07-08T07:54:24;27.60;80.00
43089;DHT22;28709;52.030;5.652;2023-07-08T07:56:49;27.80;79.40
43089;DHT22;28709;52.030;5.652;2023-07-08T07:59:15;27.80;76.70
43089;DHT22;28709;52.030;5.652;2023-07-08T08:01:40;27.90;76.70
43089;DHT22;28709;52.030;5.652;2023-07-08T08:04:08;28.00;77.30
43089;DHT22;28709;52.030;5.652;2023-07-08T08:06:34;28.10;75.80
43089;DHT22;28709;52.030;5.652;2023-07-08T08:09:00;28.10;75.50
43089;DHT22;28709;52.030;5.652;2023-07-08T08:11:26;28.30;75.50
43089;DHT22;28709;52.030;5.652;2023-07-08T08:13:52;28.40;75.70
43089;DHT22;28709;52.030;5.652;2023-07-08T08:16:19;28.40;76.00
43089;DHT22;28709;52.030;5.652;2023-07-08T08:18:45;28.50;76.30
43089;DHT22;28709;52.030;5.652;2023-07-08T08:21:11;28.60;75.60
43089;DHT22;28709;52.030;5.652;2023-07-08T08:23:36;28.70;73.90
43089;DHT22;28709;52.030;5.652;2023-07-08T08:26:02;28.80;73.50
43089;DHT22;28709;52.030;5.652;2023-07-08T08:28:28;28.90;74.20
43089;DHT22;28709;52.030;5.652;2023-07-08T08:30:53;29.10;73.50
43089;DHT22;28709;52.030;5.652;2023-07-08T08:33:19;29.20;72.50
43089;DHT22;28709;52.030;5.652;2023-07-08T08:35:45;29.10;72.00
43089;DHT22;28709;52.030;5.652;2023-07-08T08:38:11;29.10;72.40
43089;DHT22;28709;52.030;5.652;2023-07-08T08:40:39;29.10;72.40
43089;DHT22;28709;52.030;5.652;2023-07-08T08:43:10;29.10;72.60
43089;DHT22;28709;52.030;5.652;2023-07-08T08:46:10;29.20;72.70
43089;DHT22;28709;52.030;5.652;2023-07-08T08:51:44;29.50;72.40
43089;DHT22;28709;52.030;5.652;2023-07-08T08:54:10;29.50;72.10
43089;DHT22;28709;52.030;5.652;2023-07-08T08:59:45;29.40;72.10
43089;DHT22;28709;52.030;5.652;2023-07-08T09:02:32;29.40;72.60
43089;DHT22;28709;52.030;5.652;2023-07-08T09:05:05;29.50;72.70
43089;DHT22;28709;52.030;5.652;2023-07-08T09:08:05;29.80;72.70
43089;DHT22;28709;52.030;5.652;2023-07-08T09:10:45;29.90;73.10
43089;DHT22;28709;52.030;5.652;2023-07-08T09:13:31;30.30;72.40
43089;DHT22;28709;52.030;5.652;2023-07-08T09:24:23;30.80;72.80
43089;DHT22;28709;52.030;5.652;2023-07-08T09:26:53;30.90;73.10
43089;DHT22;28709;52.030;5.652;2023-07-08T09:29:22;30.90;72.50
43089;DHT22;28709;52.030;5.652;2023-07-08T09:31:48;30.80;72.10
43089;DHT22;28709;52.030;5.652;2023-07-08T09:34:16;30.90;72.00
43089;DHT22;28709;52.030;5.652;2023-07-08T09:36:46;30.90;72.20
43089;DHT22;28709;52.030;5.652;2023-07-08T09:39:14;30.80;73.20
43089;DHT22;28709;52.030;5.652;2023-07-08T09:41:42;30.80;73.30
43089;DHT22;28709;52.030;5.652;2023-07-08T09:46:42;31.30;73.00
43089;DHT22;28709;52.030;5.652;2023-07-08T09:49:21;31.40;73.20
43089;DHT22;28709;52.030;5.652;2023-07-08T09:51:48;31.50;72.60
43089;DHT22;28709;52.030;5.652;2023-07-08T09:54:22;31.60;73.10
43089;DHT22;28709;52.030;5.652;2023-07-08T09:57:12;31.80;73.70
43089;DHT22;28709;52.030;5.652;2023-07-08T09:59:49;31.90;74.10
43089;DHT22;28709;52.030;5.652;2023-07-08T10:03:02;32.10;73.10
43089;DHT22;28709;52.030;5.652;2023-07-08T10:05:32;32.30;73.10
43089;DHT22;28709;52.030;5.652;2023-07-08T10:07:59;32.30;70.80
43089;DHT22;28709;52.030;5.652;2023-07-08T10:10:38;32.30;71.10
43089;DHT22;28709;52.030;5.652;2023-07-08T10:13:17;32.30;71.40
43089;DHT22;28709;52.030;5.652;2023-07-08T10:15:54;32.40;71.90
43089;DHT22;28709;52.030;5.652;2023-07-08T10:18:25;32.60;71.10
43089;DHT22;28709;52.030;5.652;2023-07-08T10:26:30;33.00;71.20
43089;DHT22;28709;52.030;5.652;2023-07-08T10:36:50;32.80;67.50
43089;DHT22;28709;52.030;5.652;2023-07-08T10:43:12;32.70;68.90
43089;DHT22;28709;52.030;5.652;2023-07-08T10:45:29;32.80;68.70
43089;DHT22;28709;52.030;5.652;2023-07-08T10:48:24;33.00;68.70
43089;DHT22;28709;52.030;5.652;2023-07-08T10:51:11;33.10;69.20
43089;DHT22;28709;52.030;5.652;2023-07-08T10:56:55;33.20;68.20
43089;DHT22;28709;52.030;5.652;2023-07-08T11:08:07;33.80;65.90
43089;DHT22;28709;52.030;5.652;2023-07-08T11:10:52;33.80;66.70
43089;DHT22;28709;52.030;5.652;2023-07-08T11:13:22;33.90;67.30
43089;DHT22;28709;52.030;5.652;2023-07-08T11:16:00;33.90;67.20
43089;DHT22;28709;52.030;5.652;2023-07-08T11:18:49;34.00;66.90
43089;DHT22;28709;52.030;5.652;2023-07-08T11:21:22;34.00;67.50
43089;DHT22;28709;52.030;5.652;2023-07-08T11:26:50;34.10;66.30
43089;DHT22;28709;52.030;5.652;2023-07-08T11:29:28;34.20;66.20
43089;DHT22;28709;52.030;5.652;2023-07-08T11:31:55;34.20;64.70
43089;DHT22;28709;52.030;5.652;2023-07-08T11:34:22;34.30;64.70
43089;DHT22;28709;52.030;5.652;2023-07-08T11:36:49;34.40;63.80
43089;DHT22;28709;52.030;5.652;2023-07-08T11:39:28;34.40;63.90
43089;DHT22;28709;52.030;5.652;2023-07-08T11:42:04;34.30;63.70
43089;DHT22;28709;52.030;5.652;2023-07-08T11:44:33;34.30;63.70
43089;DHT22;28709;52.030;5.652;2023-07-08T11:46:59;34.20;63.00
43089;DHT22;28709;52.030;5.652;2023-07-08T11:49:25;34.20;63.80
43089;DHT22;28709;52.030;5.652;2023-07-08T11:51:52;34.40;63.60
43089;DHT22;28709;52.030;5.652;2023-07-08T11:54:30;34.60;63.30
43089;DHT22;28709;52.030;5.652;2023-07-08T11:59:24;34.60;59.40
43089;DHT22;28709;52.030;5.652;2023-07-08T12:04:52;34.10;61.30
43089;DHT22;28709;52.030;5.652;2023-07-08T12:07:36;34.00;61.00
43089;DHT22;28709;52.030;5.652;2023-07-08T12:10:33;34.00;59.70
43089;DHT22;28709;52.030;5.652;2023-07-08T12:13:00;33.90;60.90
43089;DHT22;28709;52.030;5.652;2023-07-08T12:15:28;34.00;61.70
43089;DHT22;28709;52.030;5.652;2023-07-08T12:18:13;34.00;62.40
43089;DHT22;28709;52.030;5.652;2023-07-08T12:20:42;34.20;62.00
43089;DHT22;28709;52.030;5.652;2023-07-08T12:23:15;34.20;61.80
43089;DHT22;28709;52.030;5.652;2023-07-08T12:25:41;34.20;61.50
43089;DHT22;28709;52.030;5.652;2023-07-08T12:28:08;34.10;61.60
43089;DHT22;28709;52.030;5.652;2023-07-08T12:30:34;34.20;61.40
43089;DHT22;28709;52.030;5.652;2023-07-08T12:33:01;34.20;61.00
43089;DHT22;28709;52.030;5.652;2023-07-08T12:35:30;34.10;61.10
43089;DHT22;28709;52.030;5.652;2023-07-08T12:38:03;34.00;61.90
43089;DHT22;28709;52.030;5.652;2023-07-08T12:40:30;34.10;62.30
43089;DHT22;28709;52.030;5.652;2023-07-08T12:42:57;34.20;62.20
43089;DHT22;28709;52.030;5.652;2023-07-08T12:45:28;34.10;60.40
43089;DHT22;28709;52.030;5.652;2023-07-08T12:47:55;34.10;61.10
43089;DHT22;28709;52.030;5.652;2023-07-08T12:50:20;34.20;61.80
43089;DHT22;28709;52.030;5.652;2023-07-08T12:52:47;34.20;61.70
43089;DHT22;28709;52.030;5.652;2023-07-08T12:55:14;34.40;60.40
43089;DHT22;28709;52.030;5.652;2023-07-08T12:57:47;34.40;59.90
43089;DHT22;28709;52.030;5.652;2023-07-08T13:00:36;34.30;59.40
43089;DHT22;28709;52.030;5.652;2023-07-08T13:03:15;34.10;60.40
43089;DHT22;28709;52.030;5.652;2023-07-08T13:05:42;34.00;60.70
43089;DHT22;28709;52.030;5.652;2023-07-08T13:08:21;34.00;61.70
43089;DHT22;28709;52.030;5.652;2023-07-08T13:10:49;34.00;62.70
43089;DHT22;28709;52.030;5.652;2023-07-08T13:13:24;34.00;60.90
43089;DHT22;28709;52.030;5.652;2023-07-08T13:15:51;34.00;59.20
43089;DHT22;28709;52.030;5.652;2023-07-08T13:20:55;33.80;59.10
43089;DHT22;28709;52.030;5.652;2023-07-08T13:23:22;33.80;59.80
43089;DHT22;28709;52.030;5.652;2023-07-08T13:25:50;33.80;59.60
43089;DHT22;28709;52.030;5.652;2023-07-08T13:28:23;33.80;59.30
43089;DHT22;28709;52.030;5.652;2023-07-08T13:31:00;33.80;58.70
43089;DHT22;28709;52.030;5.652;2023-07-08T13:33:33;33.60;59.00
43089;DHT22;28709;52.030;5.652;2023-07-08T13:36:02;33.50;59.30
43089;DHT22;28709;52.030;5.652;2023-07-08T13:38:33;33.40;57.40
43089;DHT22;28709;52.030;5.652;2023-07-08T13:41:02;33.40;58.30
43089;DHT22;28709;52.030;5.652;2023-07-08T13:43:31;33.50;58.80
43089;DHT22;28709;52.030;5.652;2023-07-08T13:45:58;33.40;59.00
43089;DHT22;28709;52.030;5.652;2023-07-08T13:50:58;33.40;59.50
43089;DHT22;28709;52.030;5.652;2023-07-08T13:53:35;33.40;58.80
43089;DHT22;28709;52.030;5.652;2023-07-08T13:56:25;33.30;59.40
43089;DHT22;28709;52.030;5.652;2023-07-08T13:59:07;33.40;59.00
43089;DHT22;28709;52.030;5.652;2023-07-08T14:01:35;33.30;59.30
43089;DHT22;28709;52.030;5.652;2023-07-08T14:04:03;33.40;59.70
43089;DHT22;28709;52.030;5.652;2023-07-08T14:06:31;33.40;60.00
43089;DHT22;28709;52.030;5.652;2023-07-08T14:09:03;33.50;59.60
43089;DHT22;28709;52.030;5.652;2023-07-08T14:11:29;33.60;59.90
43089;DHT22;28709;52.030;5.652;2023-07-08T14:13:55;33.60;60.00
43089;DHT22;28709;52.030;5.652;2023-07-08T14:16:25;33.60;60.00
43089;DHT22;28709;52.030;5.652;2023-07-08T14:18:53;33.60;60.20
43089;DHT22;28709;52.030;5.652;2023-07-08T14:21:19;33.60;60.00
43089;DHT22;28709;52.030;5.652;2023-07-08T14:23:45;33.60;59.90
43089;DHT22;28709;52.030;5.652;2023-07-08T14:26:11;33.60;59.90
43089;DHT22;28709;52.030;5.652;2023-07-08T14:28:36;33.60;60.10
43089;DHT22;28709;52.030;5.652;2023-07-08T14:31:02;33.60;60.60
43089;DHT22;28709;52.030;5.652;2023-07-08T14:33:28;33.70;59.80
43089;DHT22;28709;52.030;5.652;2023-07-08T14:35:53;33.70;60.10
43089;DHT22;28709;52.030;5.652;2023-07-08T14:38:19;33.70;60.20
43089;DHT22;28709;52.030;5.652;2023-07-08T14:40:45;33.80;60.10
43089;DHT22;28709;52.030;5.652;2023-07-08T14:43:32;33.80;60.30
43089;DHT22;28709;52.030;5.652;2023-07-08T14:46:00;33.70;59.30
43089;DHT22;28709;52.030;5.652;2023-07-08T14:48:32;33.60;59.50
43089;DHT22;28709;52.030;5.652;2023-07-08T14:50:58;33.60;59.50
43089;DHT22;28709;52.030;5.652;2023-07-08T14:53:24;33.60;59.20
43089;DHT22;28709;52.030;5.652;2023-07-08T14:55:52;33.50;59.40
43089;DHT22;28709;52.030;5.652;2023-07-08T14:58:32;33.40;59.80
43089;DHT22;28709;52.030;5.652;2023-07-08T15:01:01;33.50;60.40
43089;DHT22;28709;52.030;5.652;2023-07-08T15:03:30;33.60;59.80
43089;DHT22;28709;52.030;5.652;2023-07-08T15:05:56;33.50;59.50
43089;DHT22;28709;52.030;5.652;2023-07-08T15:08:22;33.40;59.60
43089;DHT22;28709;52.030;5.652;2023-07-08T15:10:49;33.30;59.70
43089;DHT22;28709;52.030;5.652;2023-07-08T15:13:18;33.30;59.50
43089;DHT22;28709;52.030;5.652;2023-07-08T15:15:45;33.20;59.60
43089;DHT22;28709;52.030;5.652;2023-07-08T15:18:15;33.20;59.50
43089;DHT22;28709;52.030;5.652;2023-07-08T15:20:41;33.20;60.00
43089;DHT22;28709;52.030;5.652;2023-07-08T15:23:09;33.30;60.00
43089;DHT22;28709;52.030;5.652;2023-07-08T15:25:35;33.40;60.00
43089;DHT22;28709;52.030;5.652;2023-07-08T15:28:03;33.50;59.60
43089;DHT22;28709;52.030;5.652;2023-07-08T15:30:29;33.50;58.90
43089;DHT22;28709;52.030;5.652;2023-07-08T15:32:56;33.40;58.80
43089;DHT22;28709;52.030;5.652;2023-07-08T15:35:25;33.40;59.00
43089;DHT22;28709;52.030;5.652;2023-07-08T15:37:51;33.30;58.50
43089;DHT22;28709;52.030;5.652;2023-07-08T15:40:19;33.30;58.20
43089;DHT22;28709;52.030;5.652;2023-07-08T15:42:49;33.30;58.70
43089;DHT22;28709;52.030;5.652;2023-07-08T15:47:43;33.30;58.80
43089;DHT22;28709;52.030;5.652;2023-07-08T15:50:14;33.30;58.80
43089;DHT22;28709;52.030;5.652;2023-07-08T15:52:41;33.30;58.90
43089;DHT22;28709;52.030;5.652;2023-07-08T15:55:08;33.20;58.70
43089;DHT22;28709;52.030;5.652;2023-07-08T15:57:46;33.20;58.60
43089;DHT22;28709;52.030;5.652;2023-07-08T16:00:16;33.10;58.50
43089;DHT22;28709;52.030;5.652;2023-07-08T16:02:51;33.10;58.30
43089;DHT22;28709;52.030;5.652;2023-07-08T16:05:18;33.10;58.60
43089;DHT22;28709;52.030;5.652;2023-07-08T16:07:45;33.10;58.60
43089;DHT22;28709;52.030;5.652;2023-07-08T16:10:11;33.10;58.80
43089;DHT22;28709;52.030;5.652;2023-07-08T16:12:37;33.10;59.10
43089;DHT22;28709;52.030;5.652;2023-07-08T16:15:03;33.00;59.00
43089;DHT22;28709;52.030;5.652;2023-07-08T16:17:33;33.10;59.30
43089;DHT22;28709;52.030;5.652;2023-07-08T16:20:01;33.10;59.40
43089;DHT22;28709;52.030;5.652;2023-07-08T16:22:27;33.10;59.20
43089;DHT22;28709;52.030;5.652;2023-07-08T16:24:53;33.10;59.00
43089;DHT22;28709;52.030;5.652;2023-07-08T16:27:18;33.10;59.20
43089;DHT22;28709;52.030;5.652;2023-07-08T16:29:44;33.10;59.50
43089;DHT22;28709;52.030;5.652;2023-07-08T16:32:14;33.20;59.70
43089;DHT22;28709;52.030;5.652;2023-07-08T16:34:40;33.20;59.70
43089;DHT22;28709;52.030;5.652;2023-07-08T16:37:06;33.10;59.30
43089;DHT22;28709;52.030;5.652;2023-07-08T16:39:31;33.10;59.60
43089;DHT22;28709;52.030;5.652;2023-07-08T16:41:57;33.10;59.80
43089;DHT22;28709;52.030;5.652;2023-07-08T16:44:22;33.10;60.00
43089;DHT22;28709;52.030;5.652;2023-07-08T16:46:48;33.20;60.20